sensor_id;sensor_type;location;lat;lon;timestamp;P1;durP1;ratioP1;P2;durP2;ratioP2
54328;SDS011;40710;51.120;13.136;2023-07-31T00:00:26;2.70;;;2.69;;
54328;SDS011;40710;51.120;13.136;2023-07-31T00:02:52;2.61;;;2.61;;
54328;SDS011;40710;51.120;13.136;2023-07-31T00:05:17;2.59;;;2.59;;
54328;SDS011;40710;51.120;13.136;2023-07-31T00:07:41;2.68;;;2.68;;
54328;SDS011;40710;51.120;13.136;2023-07-31T00:10:06;2.42;;;2.42;;
54328;SDS011;40710;51.120;13.136;2023-07-31T00:12:31;2.17;;;2.17;;
54328;SDS011;40710;51.120;13.136;2023-07-31T00:14:55;2.37;;;2.37;;
54328;SDS011;40710;51.120;13.136;2023-07-31T00:17:21;2.51;;;2.51;;
54328;SDS011;40710;51.120;13.136;2023-07-31T00:19:45;2.68;;;2.68;;
54328;SDS011;40710;51.120;13.136;2023-07-31T00:22:10;2.50;;;2.50;;
54328;SDS011;40710;51.120;13.136;2023-07-31T00:24:34;2.38;;;2.38;;
54328;SDS011;40710;51.120;13.136;2023-07-31T00:26:59;2.52;;;2.52;;
54328;SDS011;40710;51.120;13.136;2023-07-31T00:29:24;2.66;;;2.66;;
54328;SDS011;40710;51.120;13.136;2023-07-31T00:31:48;2.65;;;2.65;;
54328;SDS011;40710;51.120;13.136;2023-07-31T00:34:13;2.55;;;2.55;;
54328;SDS011;40710;51.120;13.136;2023-07-31T00:36:37;2.46;;;2.46;;
54328;SDS011;40710;51.120;13.136;2023-07-31T00:39:02;2.66;;;2.66;;
54328;SDS011;40710;51.120;13.136;2023-07-31T00:41:26;2.78;;;2.78;;
54328;SDS011;40710;51.120;13.136;2023-07-31T00:43:51;2.60;;;2.60;;
54328;SDS011;40710;51.120;13.136;2023-07-31T00:46:15;2.72;;;2.72;;
54328;SDS011;40710;51.120;13.136;2023-07-31T00:48:40;2.48;;;2.48;;
54328;SDS011;40710;51.120;13.136;2023-07-31T00:51:06;2.70;;;2.70;;
54328;SDS011;40710;51.120;13.136;2023-07-31T00:53:32;2.56;;;2.56;;
54328;SDS011;40710;51.120;13.136;2023-07-31T00:55:56;2.72;;;2.72;;
54328;SDS011;40710;51.120;13.136;2023-07-31T00:58:22;2.52;;;2.52;;
54328;SDS011;40710;51.120;13.136;2023-07-31T01:00:47;2.62;;;2.62;;
54328;SDS011;40710;51.120;13.136;2023-07-31T01:03:12;2.51;;;2.51;;
54328;SDS011;40710;51.120;13.136;2023-07-31T01:05:46;2.53;;;2.53;;
54328;SDS011;40710;51.120;13.136;2023-07-31T01:11:09;2.64;;;2.64;;
54328;SDS011;40710;51.120;13.136;2023-07-31T01:13:42;2.68;;;2.68;;
54328;SDS011;40710;51.120;13.136;2023-07-31T01:16:08;2.75;;;2.75;;
54328;SDS011;40710;51.120;13.136;2023-07-31T01:18:33;2.73;;;2.73;;
54328;SDS011;40710;51.120;13.136;2023-07-31T01:21:03;2.67;;;2.67;;
54328;SDS011;40710;51.120;13.136;2023-07-31T01:26:39;2.72;;;2.72;;
54328;SDS011;40710;51.120;13.136;2023-07-31T01:29:14;2.68;;;2.68;;
54328;SDS011;40710;51.120;13.136;2023-07-31T01:31:48;2.66;;;2.66;;
54328;SDS011;40710;51.120;13.136;2023-07-31T01:34:14;2.46;;;2.46;;
54328;SDS011;40710;51.120;13.136;2023-07-31T01:36:42;2.78;;;2.78;;
54328;SDS011;40710;51.120;13.136;2023-07-31T01:39:07;2.61;;;2.61;;
54328;SDS011;40710;51.120;13.136;2023-07-31T01:41:32;2.45;;;2.45;;
54328;SDS011;40710;51.120;13.136;2023-07-31T01:43:57;2.75;;;2.75;;
54328;SDS011;40710;51.120;13.136;2023-07-31T01:46:22;2.51;;;2.51;;
54328;SDS011;40710;51.120;13.136;2023-07-31T01:48:47;2.46;;;2.46;;
54328;SDS011;40710;51.120;13.136;2023-07-31T01:51:11;2.71;;;2.71;;
54328;SDS011;40710;51.120;13.136;2023-07-31T01:53:37;2.69;;;2.69;;
54328;SDS011;40710;51.120;13.136;2023-07-31T01:56:01;2.71;;;2.71;;
54328;SDS011;40710;51.120;13.136;2023-07-31T01:58:26;2.57;;;2.57;;
54328;SDS011;40710;51.120;13.136;2023-07-31T02:00:50;2.61;;;2.61;;
54328;SDS011;40710;51.120;13.136;2023-07-31T02:03:15;2.41;;;2.41;;
54328;SDS011;40710;51.120;13.136;2023-07-31T02:05:46;2.32;;;2.32;;
54328;SDS011;40710;51.120;13.136;2023-07-31T02:08:12;2.67;;;2.67;;
54328;SDS011;40710;51.120;13.136;2023-07-31T02:10:37;2.52;;;2.52;;
54328;SDS011;40710;51.120;13.136;2023-07-31T02:13:02;2.66;;;2.66;;
54328;SDS011;40710;51.120;13.136;2023-07-31T02:15:28;2.75;;;2.75;;
54328;SDS011;40710;51.120;13.136;2023-07-31T02:17:53;2.71;;;2.71;;
54328;SDS011;40710;51.120;13.136;2023-07-31T02:20:17;2.62;;;2.62;;
54328;SDS011;40710;51.120;13.136;2023-07-31T02:22:42;2.51;;;2.51;;
54328;SDS011;40710;51.120;13.136;2023-07-31T02:25:07;2.61;;;2.61;;
54328;SDS011;40710;51.120;13.136;2023-07-31T02:27:31;2.66;;;2.66;;
54328;SDS011;40710;51.120;13.136;2023-07-31T02:29:56;2.63;;;2.63;;
54328;SDS011;40710;51.120;13.136;2023-07-31T02:32:23;2.55;;;2.55;;
54328;SDS011;40710;51.120;13.136;2023-07-31T02:34:48;2.61;;;2.61;;
54328;SDS011;40710;51.120;13.136;2023-07-31T02:37:12;2.48;;;2.48;;
54328;SDS011;40710;51.120;13.136;2023-07-31T02:39:37;2.83;;;2.83;;
54328;SDS011;40710;51.120;13.136;2023-07-31T02:42:02;2.74;;;2.74;;
54328;SDS011;40710;51.120;13.136;2023-07-31T02:44:27;2.56;;;2.56;;
54328;SDS011;40710;51.120;13.136;2023-07-31T02:46:52;2.90;;;2.90;;
54328;SDS011;40710;51.120;13.136;2023-07-31T02:49:17;2.61;;;2.61;;
54328;SDS011;40710;51.120;13.136;2023-07-31T02:51:41;2.53;;;2.53;;
54328;SDS011;40710;51.120;13.136;2023-07-31T02:54:06;2.29;;;2.29;;
54328;SDS011;40710;51.120;13.136;2023-07-31T02:56:30;2.54;;;2.54;;
54328;SDS011;40710;51.120;13.136;2023-07-31T02:58:55;2.50;;;2.50;;
54328;SDS011;40710;51.120;13.136;2023-07-31T03:01:19;2.63;;;2.63;;
54328;SDS011;40710;51.120;13.136;2023-07-31T03:03:44;2.66;;;2.66;;
54328;SDS011;40710;51.120;13.136;2023-07-31T03:06:09;2.74;;;2.74;;
54328;SDS011;40710;51.120;13.136;2023-07-31T03:08:33;2.76;;;2.76;;
54328;SDS011;40710;51.120;13.136;2023-07-31T03:10:58;2.72;;;2.72;;
54328;SDS011;40710;51.120;13.136;2023-07-31T03:13:22;2.82;;;2.82;;
54328;SDS011;40710;51.120;13.136;2023-07-31T03:15:47;2.63;;;2.63;;
54328;SDS011;40710;51.120;13.136;2023-07-31T03:18:12;3.14;;;3.14;;
54328;SDS011;40710;51.120;13.136;2023-07-31T03:20:36;2.62;;;2.62;;
54328;SDS011;40710;51.120;13.136;2023-07-31T03:23:01;2.81;;;2.81;;
54328;SDS011;40710;51.120;13.136;2023-07-31T03:25:26;2.84;;;2.84;;
54328;SDS011;40710;51.120;13.136;2023-07-31T03:27:50;2.80;;;2.80;;
54328;SDS011;40710;51.120;13.136;2023-07-31T03:30:15;2.86;;;2.86;;
54328;SDS011;40710;51.120;13.136;2023-07-31T03:32:39;2.93;;;2.93;;
54328;SDS011;40710;51.120;13.136;2023-07-31T03:35:05;2.92;;;2.92;;
54328;SDS011;40710;51.120;13.136;2023-07-31T03:37:30;3.12;;;3.12;;
54328;SDS011;40710;51.120;13.136;2023-07-31T03:39:54;2.94;;;2.94;;
54328;SDS011;40710;51.120;13.136;2023-07-31T03:42:19;3.02;;;3.02;;
54328;SDS011;40710;51.120;13.136;2023-07-31T03:44:43;3.20;;;3.20;;
54328;SDS011;40710;51.120;13.136;2023-07-31T03:47:08;2.69;;;2.69;;
54328;SDS011;40710;51.120;13.136;2023-07-31T03:49:33;3.04;;;3.04;;
54328;SDS011;40710;51.120;13.136;2023-07-31T03:51:57;3.02;;;3.02;;
54328;SDS011;40710;51.120;13.136;2023-07-31T03:54:22;3.08;;;3.08;;
54328;SDS011;40710;51.120;13.136;2023-07-31T03:56:47;3.02;;;3.02;;
54328;SDS011;40710;51.120;13.136;2023-07-31T03:59:11;2.90;;;2.90;;
54328;SDS011;40710;51.120;13.136;2023-07-31T04:01:36;3.03;;;3.03;;
54328;SDS011;40710;51.120;13.136;2023-07-31T04:04:00;3.23;;;3.23;;
54328;SDS011;40710;51.120;13.136;2023-07-31T04:06:25;3.18;;;3.18;;
54328;SDS011;40710;51.120;13.136;2023-07-31T04:08:50;3.34;;;3.34;;
54328;SDS011;40710;51.120;13.136;2023-07-31T04:11:14;2.94;;;2.94;;
54328;SDS011;40710;51.120;13.136;2023-07-31T04:13:39;3.28;;;3.28;;
54328;SDS011;40710;51.120;13.136;2023-07-31T04:16:03;3.26;;;3.26;;
54328;SDS011;40710;51.120;13.136;2023-07-31T04:18:28;3.30;;;3.30;;
54328;SDS011;40710;51.120;13.136;2023-07-31T04:20:55;3.16;;;3.14;;
54328;SDS011;40710;51.120;13.136;2023-07-31T04:23:19;3.18;;;3.18;;
54328;SDS011;40710;51.120;13.136;2023-07-31T04:25:44;3.10;;;3.10;;
54328;SDS011;40710;51.120;13.136;2023-07-31T04:28:08;3.15;;;3.15;;
54328;SDS011;40710;51.120;13.136;2023-07-31T04:30:33;3.03;;;3.02;;
54328;SDS011;40710;51.120;13.136;2023-07-31T04:32:58;2.98;;;2.98;;
54328;SDS011;40710;51.120;13.136;2023-07-31T04:35:23;2.99;;;2.99;;
54328;SDS011;40710;51.120;13.136;2023-07-31T04:37:48;3.16;;;3.16;;
54328;SDS011;40710;51.120;13.136;2023-07-31T04:40:13;3.53;;;3.53;;
54328;SDS011;40710;51.120;13.136;2023-07-31T04:42:38;2.81;;;2.81;;
54328;SDS011;40710;51.120;13.136;2023-07-31T04:45:03;2.98;;;2.98;;
54328;SDS011;40710;51.120;13.136;2023-07-31T04:47:28;2.97;;;2.97;;
54328;SDS011;40710;51.120;13.136;2023-07-31T04:49:53;3.07;;;3.07;;
54328;SDS011;40710;51.120;13.136;2023-07-31T04:52:17;2.79;;;2.79;;
54328;SDS011;40710;51.120;13.136;2023-07-31T04:54:42;3.07;;;3.07;;
54328;SDS011;40710;51.120;13.136;2023-07-31T04:57:07;3.09;;;3.09;;
54328;SDS011;40710;51.120;13.136;2023-07-31T04:59:32;3.03;;;3.03;;
54328;SDS011;40710;51.120;13.136;2023-07-31T05:01:56;3.20;;;3.20;;
54328;SDS011;40710;51.120;13.136;2023-07-31T05:04:21;3.14;;;3.14;;
54328;SDS011;40710;51.120;13.136;2023-07-31T05:06:45;3.03;;;3.03;;
54328;SDS011;40710;51.120;13.136;2023-07-31T05:09:10;2.83;;;2.83;;
54328;SDS011;40710;51.120;13.136;2023-07-31T05:11:35;3.12;;;3.12;;
54328;SDS011;40710;51.120;13.136;2023-07-31T05:13:59;3.06;;;3.06;;
54328;SDS011;40710;51.120;13.136;2023-07-31T05:16:24;3.22;;;3.22;;
54328;SDS011;40710;51.120;13.136;2023-07-31T05:18:48;2.93;;;2.93;;
54328;SDS011;40710;51.120;13.136;2023-07-31T05:21:13;3.02;;;3.02;;
54328;SDS011;40710;51.120;13.136;2023-07-31T05:23:37;3.09;;;3.09;;
54328;SDS011;40710;51.120;13.136;2023-07-31T05:26:06;2.87;;;2.87;;
54328;SDS011;40710;51.120;13.136;2023-07-31T05:28:31;2.98;;;2.98;;
54328;SDS011;40710;51.120;13.136;2023-07-31T05:30:59;3.86;;;3.86;;
54328;SDS011;40710;51.120;13.136;2023-07-31T05:33:27;3.16;;;3.14;;
54328;SDS011;40710;51.120;13.136;2023-07-31T05:35:52;3.23;;;3.22;;
54328;SDS011;40710;51.120;13.136;2023-07-31T05:38:17;3.01;;;3.01;;
54328;SDS011;40710;51.120;13.136;2023-07-31T05:40:42;3.36;;;3.36;;
54328;SDS011;40710;51.120;13.136;2023-07-31T05:43:07;3.19;;;3.19;;
54328;SDS011;40710;51.120;13.136;2023-07-31T05:45:32;3.15;;;3.15;;
54328;SDS011;40710;51.120;13.136;2023-07-31T05:47:57;3.30;;;3.27;;
54328;SDS011;40710;51.120;13.136;2023-07-31T05:50:22;2.93;;;2.93;;
54328;SDS011;40710;51.120;13.136;2023-07-31T05:52:46;3.05;;;3.05;;
54328;SDS011;40710;51.120;13.136;2023-07-31T05:55:11;3.21;;;3.21;;
54328;SDS011;40710;51.120;13.136;2023-07-31T05:57:35;3.66;;;3.66;;
54328;SDS011;40710;51.120;13.136;2023-07-31T06:00:01;4.36;;;4.35;;
54328;SDS011;40710;51.120;13.136;2023-07-31T06:02:26;2.86;;;2.86;;
54328;SDS011;40710;51.120;13.136;2023-07-31T06:04:50;3.09;;;3.09;;
54328;SDS011;40710;51.120;13.136;2023-07-31T06:07:15;3.19;;;3.19;;
54328;SDS011;40710;51.120;13.136;2023-07-31T06:09:40;3.03;;;3.02;;
54328;SDS011;40710;51.120;13.136;2023-07-31T06:12:04;3.28;;;3.28;;
54328;SDS011;40710;51.120;13.136;2023-07-31T06:14:29;3.33;;;3.33;;
54328;SDS011;40710;51.120;13.136;2023-07-31T06:16:53;3.70;;;3.69;;
54328;SDS011;40710;51.120;13.136;2023-07-31T06:19:18;3.68;;;3.68;;
54328;SDS011;40710;51.120;13.136;2023-07-31T06:21:42;3.40;;;3.39;;
54328;SDS011;40710;51.120;13.136;2023-07-31T06:24:08;3.21;;;3.21;;
54328;SDS011;40710;51.120;13.136;2023-07-31T06:26:33;3.22;;;3.22;;
54328;SDS011;40710;51.120;13.136;2023-07-31T06:28:57;2.84;;;2.84;;
54328;SDS011;40710;51.120;13.136;2023-07-31T06:31:22;2.49;;;2.49;;
54328;SDS011;40710;51.120;13.136;2023-07-31T06:33:47;3.01;;;3.01;;
54328;SDS011;40710;51.120;13.136;2023-07-31T06:36:11;3.19;;;3.19;;
54328;SDS011;40710;51.120;13.136;2023-07-31T06:38:36;3.04;;;3.04;;
54328;SDS011;40710;51.120;13.136;2023-07-31T06:41:01;2.97;;;2.97;;
54328;SDS011;40710;51.120;13.136;2023-07-31T06:43:26;3.05;;;3.05;;
54328;SDS011;40710;51.120;13.136;2023-07-31T06:45:50;3.61;;;3.61;;
54328;SDS011;40710;51.120;13.136;2023-07-31T06:48:15;3.60;;;3.60;;
54328;SDS011;40710;51.120;13.136;2023-07-31T06:50:40;3.27;;;3.27;;
54328;SDS011;40710;51.120;13.136;2023-07-31T06:53:04;4.06;;;4.06;;
54328;SDS011;40710;51.120;13.136;2023-07-31T06:55:29;3.33;;;3.33;;
54328;SDS011;40710;51.120;13.136;2023-07-31T06:57:54;3.23;;;3.23;;
54328;SDS011;40710;51.120;13.136;2023-07-31T07:00:20;3.24;;;3.24;;
54328;SDS011;40710;51.120;13.136;2023-07-31T07:02:46;3.17;;;3.17;;
54328;SDS011;40710;51.120;13.136;2023-07-31T07:05:14;3.07;;;3.06;;
54328;SDS011;40710;51.120;13.136;2023-07-31T07:07:40;3.13;;;3.13;;
54328;SDS011;40710;51.120;13.136;2023-07-31T07:10:05;3.19;;;3.19;;
54328;SDS011;40710;51.120;13.136;2023-07-31T07:12:30;3.25;;;3.24;;
54328;SDS011;40710;51.120;13.136;2023-07-31T07:14:56;3.92;;;3.90;;
54328;SDS011;40710;51.120;13.136;2023-07-31T07:17:21;3.15;;;3.14;;
54328;SDS011;40710;51.120;13.136;2023-07-31T07:19:47;3.03;;;3.03;;
54328;SDS011;40710;51.120;13.136;2023-07-31T07:22:12;2.97;;;2.97;;
54328;SDS011;40710;51.120;13.136;2023-07-31T07:24:37;2.94;;;2.94;;
54328;SDS011;40710;51.120;13.136;2023-07-31T07:27:01;3.03;;;3.03;;
54328;SDS011;40710;51.120;13.136;2023-07-31T07:29:26;3.01;;;3.01;;
54328;SDS011;40710;51.120;13.136;2023-07-31T07:31:51;2.78;;;2.78;;
54328;SDS011;40710;51.120;13.136;2023-07-31T07:34:16;2.91;;;2.91;;
54328;SDS011;40710;51.120;13.136;2023-07-31T07:36:40;2.94;;;2.93;;
54328;SDS011;40710;51.120;13.136;2023-07-31T07:39:06;2.93;;;2.92;;
54328;SDS011;40710;51.120;13.136;2023-07-31T07:41:30;2.92;;;2.92;;
54328;SDS011;40710;51.120;13.136;2023-07-31T07:43:55;2.84;;;2.84;;
54328;SDS011;40710;51.120;13.136;2023-07-31T07:46:20;2.79;;;2.79;;
54328;SDS011;40710;51.120;13.136;2023-07-31T07:48:45;2.95;;;2.95;;
54328;SDS011;40710;51.120;13.136;2023-07-31T07:51:09;2.95;;;2.95;;
54328;SDS011;40710;51.120;13.136;2023-07-31T07:53:34;3.16;;;3.16;;
54328;SDS011;40710;51.120;13.136;2023-07-31T07:55:59;3.02;;;3.02;;
54328;SDS011;40710;51.120;13.136;2023-07-31T07:58:23;3.20;;;3.20;;
54328;SDS011;40710;51.120;13.136;2023-07-31T08:00:48;2.96;;;2.96;;
54328;SDS011;40710;51.120;13.136;2023-07-31T08:03:16;3.10;;;3.10;;
54328;SDS011;40710;51.120;13.136;2023-07-31T08:05:41;3.04;;;3.04;;
54328;SDS011;40710;51.120;13.136;2023-07-31T08:08:06;3.09;;;3.09;;
54328;SDS011;40710;51.120;13.136;2023-07-31T08:10:30;3.03;;;3.03;;
54328;SDS011;40710;51.120;13.136;2023-07-31T08:12:55;2.97;;;2.97;;
54328;SDS011;40710;51.120;13.136;2023-07-31T08:15:20;3.04;;;3.04;;
54328;SDS011;40710;51.120;13.136;2023-07-31T08:17:44;3.33;;;3.32;;
54328;SDS011;40710;51.120;13.136;2023-07-31T08:20:09;3.19;;;3.17;;
54328;SDS011;40710;51.120;13.136;2023-07-31T08:22:34;3.12;;;3.10;;
54328;SDS011;40710;51.120;13.136;2023-07-31T08:24:59;3.09;;;3.08;;
54328;SDS011;40710;51.120;13.136;2023-07-31T08:27:23;2.87;;;2.87;;
54328;SDS011;40710;51.120;13.136;2023-07-31T08:29:48;3.25;;;3.25;;
54328;SDS011;40710;51.120;13.136;2023-07-31T08:32:12;4.05;;;4.05;;
54328;SDS011;40710;51.120;13.136;2023-07-31T08:34:37;4.48;;;4.47;;
54328;SDS011;40710;51.120;13.136;2023-07-31T08:37:01;3.35;;;3.35;;
54328;SDS011;40710;51.120;13.136;2023-07-31T08:39:26;3.21;;;3.21;;
54328;SDS011;40710;51.120;13.136;2023-07-31T08:41:51;3.09;;;3.09;;
54328;SDS011;40710;51.120;13.136;2023-07-31T08:44:22;3.31;;;3.31;;
54328;SDS011;40710;51.120;13.136;2023-07-31T08:46:47;3.40;;;3.39;;
54328;SDS011;40710;51.120;13.136;2023-07-31T08:49:13;3.16;;;3.15;;
54328;SDS011;40710;51.120;13.136;2023-07-31T08:51:38;3.45;;;3.45;;
54328;SDS011;40710;51.120;13.136;2023-07-31T08:54:05;3.16;;;3.16;;
54328;SDS011;40710;51.120;13.136;2023-07-31T08:56:31;3.26;;;3.26;;
54328;SDS011;40710;51.120;13.136;2023-07-31T08:58:56;3.51;;;3.50;;
54328;SDS011;40710;51.120;13.136;2023-07-31T09:01:22;3.33;;;3.31;;
54328;SDS011;40710;51.120;13.136;2023-07-31T09:03:48;3.13;;;3.12;;
54328;SDS011;40710;51.120;13.136;2023-07-31T09:06:16;3.28;;;3.28;;
54328;SDS011;40710;51.120;13.136;2023-07-31T09:08:45;3.16;;;3.16;;
54328;SDS011;40710;51.120;13.136;2023-07-31T09:11:10;3.30;;;3.30;;
54328;SDS011;40710;51.120;13.136;2023-07-31T09:13:34;3.18;;;3.18;;
54328;SDS011;40710;51.120;13.136;2023-07-31T09:16:00;3.07;;;3.06;;
54328;SDS011;40710;51.120;13.136;2023-07-31T09:18:24;3.00;;;3.00;;
54328;SDS011;40710;51.120;13.136;2023-07-31T09:21:04;3.33;;;3.33;;
54328;SDS011;40710;51.120;13.136;2023-07-31T09:26:31;3.08;;;3.08;;
54328;SDS011;40710;51.120;13.136;2023-07-31T09:28:58;4.57;;;4.57;;
54328;SDS011;40710;51.120;13.136;2023-07-31T09:34:18;3.41;;;3.41;;
54328;SDS011;40710;51.120;13.136;2023-07-31T09:36:44;3.24;;;3.24;;
54328;SDS011;40710;51.120;13.136;2023-07-31T09:39:11;3.34;;;3.34;;
54328;SDS011;40710;51.120;13.136;2023-07-31T09:41:40;3.40;;;3.40;;
54328;SDS011;40710;51.120;13.136;2023-07-31T09:44:06;3.46;;;3.46;;
54328;SDS011;40710;51.120;13.136;2023-07-31T09:46:31;3.19;;;3.19;;
54328;SDS011;40710;51.120;13.136;2023-07-31T09:49:09;3.11;;;3.11;;
54328;SDS011;40710;51.120;13.136;2023-07-31T09:51:38;3.42;;;3.42;;
54328;SDS011;40710;51.120;13.136;2023-07-31T09:54:09;3.63;;;3.63;;
54328;SDS011;40710;51.120;13.136;2023-07-31T09:56:44;4.30;;;4.27;;
54328;SDS011;40710;51.120;13.136;2023-07-31T09:59:11;3.64;;;3.52;;
54328;SDS011;40710;51.120;13.136;2023-07-31T10:01:38;3.30;;;3.27;;
54328;SDS011;40710;51.120;13.136;2023-07-31T10:04:04;3.60;;;3.58;;
54328;SDS011;40710;51.120;13.136;2023-07-31T10:06:29;3.69;;;3.67;;
54328;SDS011;40710;51.120;13.136;2023-07-31T10:08:57;3.46;;;3.44;;
54328;SDS011;40710;51.120;13.136;2023-07-31T10:11:23;3.33;;;3.32;;
54328;SDS011;40710;51.120;13.136;2023-07-31T10:13:52;3.45;;;3.45;;
54328;SDS011;40710;51.120;13.136;2023-07-31T10:16:20;3.45;;;3.44;;
54328;SDS011;40710;51.120;13.136;2023-07-31T10:18:45;3.74;;;3.74;;
54328;SDS011;40710;51.120;13.136;2023-07-31T10:21:10;3.68;;;3.68;;
54328;SDS011;40710;51.120;13.136;2023-07-31T10:23:35;3.52;;;3.52;;
54328;SDS011;40710;51.120;13.136;2023-07-31T10:26:00;3.26;;;3.26;;
54328;SDS011;40710;51.120;13.136;2023-07-31T10:28:26;3.53;;;3.53;;
54328;SDS011;40710;51.120;13.136;2023-07-31T10:30:51;3.27;;;3.27;;
54328;SDS011;40710;51.120;13.136;2023-07-31T10:33:16;3.11;;;3.11;;
54328;SDS011;40710;51.120;13.136;2023-07-31T10:35:43;3.11;;;3.11;;
54328;SDS011;40710;51.120;13.136;2023-07-31T10:38:11;3.25;;;3.25;;
54328;SDS011;40710;51.120;13.136;2023-07-31T10:40:36;3.29;;;3.28;;
54328;SDS011;40710;51.120;13.136;2023-07-31T10:43:01;3.16;;;3.14;;
54328;SDS011;40710;51.120;13.136;2023-07-31T10:45:33;3.41;;;3.40;;
54328;SDS011;40710;51.120;13.136;2023-07-31T10:48:03;4.42;;;4.41;;
54328;SDS011;40710;51.120;13.136;2023-07-31T10:50:29;3.39;;;3.39;;
54328;SDS011;40710;51.120;13.136;2023-07-31T10:52:59;3.21;;;3.21;;
54328;SDS011;40710;51.120;13.136;2023-07-31T10:57:52;3.32;;;3.32;;
54328;SDS011;40710;51.120;13.136;2023-07-31T11:00:19;3.28;;;3.28;;
54328;SDS011;40710;51.120;13.136;2023-07-31T11:02:55;3.06;;;3.06;;
54328;SDS011;40710;51.120;13.136;2023-07-31T11:05:41;3.03;;;3.03;;
54328;SDS011;40710;51.120;13.136;2023-07-31T11:08:17;3.15;;;3.15;;
54328;SDS011;40710;51.120;13.136;2023-07-31T11:10:45;3.05;;;3.05;;
54328;SDS011;40710;51.120;13.136;2023-07-31T11:13:11;2.98;;;2.98;;
54328;SDS011;40710;51.120;13.136;2023-07-31T11:15:36;3.09;;;3.09;;
54328;SDS011;40710;51.120;13.136;2023-07-31T11:18:01;3.14;;;3.14;;
54328;SDS011;40710;51.120;13.136;2023-07-31T11:20:30;2.98;;;2.98;;
54328;SDS011;40710;51.120;13.136;2023-07-31T11:22:57;3.30;;;3.30;;
54328;SDS011;40710;51.120;13.136;2023-07-31T11:25:33;3.18;;;3.18;;
54328;SDS011;40710;51.120;13.136;2023-07-31T11:28:02;3.09;;;3.09;;
54328;SDS011;40710;51.120;13.136;2023-07-31T11:30:31;2.87;;;2.87;;
54328;SDS011;40710;51.120;13.136;2023-07-31T11:32:56;2.92;;;2.92;;
54328;SDS011;40710;51.120;13.136;2023-07-31T11:35:21;3.25;;;3.25;;
54328;SDS011;40710;51.120;13.136;2023-07-31T11:37:46;2.97;;;2.97;;
54328;SDS011;40710;51.120;13.136;2023-07-31T11:40:11;2.86;;;2.86;;
54328;SDS011;40710;51.120;13.136;2023-07-31T11:42:36;2.90;;;2.90;;
54328;SDS011;40710;51.120;13.136;2023-07-31T11:45:04;2.67;;;2.67;;
54328;SDS011;40710;51.120;13.136;2023-07-31T11:47:29;2.90;;;2.90;;
54328;SDS011;40710;51.120;13.136;2023-07-31T11:49:59;2.83;;;2.83;;
54328;SDS011;40710;51.120;13.136;2023-07-31T11:52:25;2.90;;;2.90;;
54328;SDS011;40710;51.120;13.136;2023-07-31T11:54:51;3.07;;;3.07;;
54328;SDS011;40710;51.120;13.136;2023-07-31T11:57:16;3.31;;;3.31;;
54328;SDS011;40710;51.120;13.136;2023-07-31T11:59:44;2.83;;;2.83;;
54328;SDS011;40710;51.120;13.136;2023-07-31T12:02:09;3.10;;;3.10;;
54328;SDS011;40710;51.120;13.136;2023-07-31T12:04:34;2.95;;;2.95;;
54328;SDS011;40710;51.120;13.136;2023-07-31T12:07:00;2.96;;;2.96;;
54328;SDS011;40710;51.120;13.136;2023-07-31T12:09:25;3.05;;;3.05;;
54328;SDS011;40710;51.120;13.136;2023-07-31T12:11:50;3.07;;;3.07;;
54328;SDS011;40710;51.120;13.136;2023-07-31T12:14:25;3.34;;;3.34;;
54328;SDS011;40710;51.120;13.136;2023-07-31T12:16:56;3.00;;;3.00;;
54328;SDS011;40710;51.120;13.136;2023-07-31T12:19:22;2.94;;;2.94;;
54328;SDS011;40710;51.120;13.136;2023-07-31T12:21:51;2.72;;;2.72;;
54328;SDS011;40710;51.120;13.136;2023-07-31T12:24:17;3.19;;;3.19;;
54328;SDS011;40710;51.120;13.136;2023-07-31T12:26:44;3.10;;;3.09;;
54328;SDS011;40710;51.120;13.136;2023-07-31T12:29:10;2.97;;;2.97;;
54328;SDS011;40710;51.120;13.136;2023-07-31T12:31:35;2.85;;;2.85;;
54328;SDS011;40710;51.120;13.136;2023-07-31T12:34:00;3.05;;;3.05;;
54328;SDS011;40710;51.120;13.136;2023-07-31T12:36:26;2.98;;;2.98;;
54328;SDS011;40710;51.120;13.136;2023-07-31T12:38:53;2.87;;;2.87;;
54328;SDS011;40710;51.120;13.136;2023-07-31T12:41:21;3.20;;;3.20;;
54328;SDS011;40710;51.120;13.136;2023-07-31T12:43:45;2.97;;;2.97;;
54328;SDS011;40710;51.120;13.136;2023-07-31T12:46:10;3.03;;;3.03;;
54328;SDS011;40710;51.120;13.136;2023-07-31T12:48:35;3.20;;;3.20;;
54328;SDS011;40710;51.120;13.136;2023-07-31T12:51:00;3.18;;;3.18;;
54328;SDS011;40710;51.120;13.136;2023-07-31T12:53:25;3.05;;;3.05;;
54328;SDS011;40710;51.120;13.136;2023-07-31T12:55:51;3.32;;;3.32;;
54328;SDS011;40710;51.120;13.136;2023-07-31T12:58:15;3.26;;;3.26;;
54328;SDS011;40710;51.120;13.136;2023-07-31T13:00:40;3.19;;;3.19;;
54328;SDS011;40710;51.120;13.136;2023-07-31T13:03:04;2.88;;;2.88;;
54328;SDS011;40710;51.120;13.136;2023-07-31T13:05:29;3.14;;;3.14;;
54328;SDS011;40710;51.120;13.136;2023-07-31T13:07:54;2.89;;;2.88;;
54328;SDS011;40710;51.120;13.136;2023-07-31T13:10:19;2.83;;;2.83;;
54328;SDS011;40710;51.120;13.136;2023-07-31T13:12:45;3.03;;;3.03;;
54328;SDS011;40710;51.120;13.136;2023-07-31T13:15:10;3.00;;;2.99;;
54328;SDS011;40710;51.120;13.136;2023-07-31T13:17:34;2.81;;;2.80;;
54328;SDS011;40710;51.120;13.136;2023-07-31T13:20:00;2.72;;;2.72;;
54328;SDS011;40710;51.120;13.136;2023-07-31T13:22:25;3.06;;;3.06;;
54328;SDS011;40710;51.120;13.136;2023-07-31T13:24:50;2.89;;;2.89;;
54328;SDS011;40710;51.120;13.136;2023-07-31T13:27:15;2.93;;;2.93;;
54328;SDS011;40710;51.120;13.136;2023-07-31T13:29:45;2.99;;;2.99;;
54328;SDS011;40710;51.120;13.136;2023-07-31T13:32:10;2.83;;;2.83;;
54328;SDS011;40710;51.120;13.136;2023-07-31T13:34:35;3.00;;;3.00;;
54328;SDS011;40710;51.120;13.136;2023-07-31T13:37:00;2.89;;;2.89;;
54328;SDS011;40710;51.120;13.136;2023-07-31T13:39:24;2.94;;;2.94;;
54328;SDS011;40710;51.120;13.136;2023-07-31T13:41:49;2.63;;;2.63;;
54328;SDS011;40710;51.120;13.136;2023-07-31T13:44:14;5.17;;;5.17;;
54328;SDS011;40710;51.120;13.136;2023-07-31T13:46:38;3.92;;;3.92;;
54328;SDS011;40710;51.120;13.136;2023-07-31T13:49:03;3.07;;;3.07;;
54328;SDS011;40710;51.120;13.136;2023-07-31T13:51:28;2.75;;;2.75;;
54328;SDS011;40710;51.120;13.136;2023-07-31T13:53:53;2.68;;;2.68;;
54328;SDS011;40710;51.120;13.136;2023-07-31T13:56:17;2.90;;;2.89;;
54328;SDS011;40710;51.120;13.136;2023-07-31T13:58:42;2.76;;;2.75;;
54328;SDS011;40710;51.120;13.136;2023-07-31T14:01:07;3.19;;;3.17;;
54328;SDS011;40710;51.120;13.136;2023-07-31T14:03:31;3.00;;;2.98;;
54328;SDS011;40710;51.120;13.136;2023-07-31T14:05:56;2.87;;;2.87;;
54328;SDS011;40710;51.120;13.136;2023-07-31T14:08:21;3.02;;;3.01;;
54328;SDS011;40710;51.120;13.136;2023-07-31T14:10:46;3.15;;;3.15;;
54328;SDS011;40710;51.120;13.136;2023-07-31T14:13:11;2.90;;;2.90;;
54328;SDS011;40710;51.120;13.136;2023-07-31T14:15:36;2.85;;;2.82;;
54328;SDS011;40710;51.120;13.136;2023-07-31T14:18:00;2.64;;;2.64;;
54328;SDS011;40710;51.120;13.136;2023-07-31T14:20:25;2.57;;;2.56;;
54328;SDS011;40710;51.120;13.136;2023-07-31T14:22:49;3.00;;;2.99;;
54328;SDS011;40710;51.120;13.136;2023-07-31T14:25:15;2.56;;;2.55;;
54328;SDS011;40710;51.120;13.136;2023-07-31T14:27:40;2.79;;;2.77;;
54328;SDS011;40710;51.120;13.136;2023-07-31T14:30:05;2.95;;;2.95;;
54328;SDS011;40710;51.120;13.136;2023-07-31T14:32:30;3.02;;;3.02;;
54328;SDS011;40710;51.120;13.136;2023-07-31T14:34:54;2.85;;;2.85;;
54328;SDS011;40710;51.120;13.136;2023-07-31T14:37:20;2.78;;;2.78;;